createdAt,value
2023-02-01T00:00:57.033Z,2.53
2023-02-01T00:03:25.477Z,5.53
2023-02-01T00:06:01.769Z,3.97
2023-02-01T00:08:30.388Z,4.03
2023-02-01T00:11:02.317Z,4.20
2023-02-01T00:13:31.764Z,5.38
2023-02-01T00:16:05.547Z,4.30
2023-02-01T00:18:33.995Z,3.90
2023-02-01T00:21:04.080Z,5.90
2023-02-01T00:26:03.460Z,8.43
2023-02-01T00:28:32.268Z,12.00
2023-02-01T00:31:00.848Z,10.98
2023-02-01T00:33:29.626Z,11.50
2023-02-01T00:35:59.711Z,10.88
2023-02-01T00:41:03.469Z,10.15
2023-02-01T00:43:33.079Z,10.40
2023-02-01T00:46:01.471Z,7.13
2023-02-01T00:48:29.893Z,12.07
2023-02-01T00:51:01.456Z,8.45
2023-02-01T00:53:31.519Z,6.75
2023-02-01T00:58:29.067Z,8.15
2023-02-01T01:01:04.703Z,9.25
2023-02-01T01:03:35.293Z,10.32
2023-02-01T01:06:05.461Z,6.82
2023-02-01T01:08:35.265Z,9.48
2023-02-01T01:11:07.978Z,8.10
2023-02-01T01:13:36.361Z,8.63
2023-02-01T01:16:05.599Z,8.00
2023-02-01T01:18:34.866Z,7.50
2023-02-01T01:21:03.492Z,7.87
2023-02-01T01:23:31.885Z,10.65
2023-02-01T01:26:02.233Z,7.03
2023-02-01T01:28:30.600Z,8.25
2023-02-01T01:30:59.026Z,8.05
2023-02-01T01:33:27.442Z,8.23
2023-02-01T01:35:55.824Z,7.65
2023-02-01T01:38:24.302Z,7.88
2023-02-01T01:40:52.677Z,6.95
2023-02-01T01:43:23.520Z,7.65
2023-02-01T01:45:52.502Z,8.02
2023-02-01T01:48:28.051Z,6.60
2023-02-01T01:51:02.780Z,6.53
2023-02-01T01:53:34.818Z,7.35
2023-02-01T01:56:03.601Z,5.93
2023-02-01T01:58:35.656Z,7.13
2023-02-01T02:01:04.120Z,10.48
2023-02-01T02:03:36.640Z,8.27
2023-02-01T02:06:08.824Z,7.60
2023-02-01T02:08:37.203Z,6.18
2023-02-01T02:11:05.639Z,6.50
2023-02-01T02:13:37.965Z,6.10
2023-02-01T02:16:34.339Z,4.70
2023-02-01T02:19:43.397Z,7.85
2023-02-01T02:22:47.008Z,7.65
2023-02-01T02:25:43.365Z,6.70
2023-02-01T02:28:25.700Z,6.78
2023-02-01T02:31:26.001Z,5.75
2023-02-01T02:34:03.382Z,5.95
2023-02-01T02:36:41.895Z,4.88
2023-02-01T02:39:18.724Z,6.00
2023-02-01T02:42:14.007Z,5.28
2023-02-01T02:45:06.687Z,6.55
2023-02-01T02:47:41.147Z,5.90
2023-02-01T02:50:36.811Z,6.40
2023-02-01T02:53:30.270Z,5.10
2023-02-01T02:56:16.726Z,5.45
2023-02-01T02:59:03.609Z,8.20
2023-02-01T03:01:51.618Z,7.20
2023-02-01T03:04:21.062Z,5.30
2023-02-01T03:06:50.821Z,7.78
2023-02-01T03:09:23.280Z,5.38
2023-02-01T03:12:14.343Z,6.28
2023-02-01T03:14:46.038Z,3.78
2023-02-01T03:17:17.733Z,6.35
2023-02-01T03:19:51.213Z,6.18
2023-02-01T03:22:25.023Z,6.25
2023-02-01T03:24:56.049Z,5.90
2023-02-01T03:27:25.867Z,5.50
2023-02-01T03:29:58.375Z,4.10
2023-02-01T03:32:26.829Z,5.07
2023-02-01T03:34:55.595Z,5.43
2023-02-01T03:37:28.152Z,5.72
2023-02-01T03:40:01.657Z,8.38
2023-02-01T03:42:34.360Z,5.57
2023-02-01T03:45:08.681Z,6.40
2023-02-01T03:47:42.206Z,4.72
2023-02-01T03:50:13.369Z,6.50
2023-02-01T03:52:46.847Z,5.68
2023-02-01T03:55:17.443Z,5.82
2023-02-01T03:57:52.774Z,5.75
2023-02-01T04:00:24.583Z,5.95
2023-02-01T04:02:54.081Z,4.85
2023-02-01T04:05:22.602Z,6.33
2023-02-01T04:07:52.215Z,6.75
2023-02-01T04:10:20.457Z,5.28
2023-02-01T04:12:48.623Z,5.03
2023-02-01T04:15:17.135Z,5.75
2023-02-01T04:17:45.514Z,6.55
2023-02-01T04:20:13.960Z,7.03
2023-02-01T04:22:42.373Z,5.28
2023-02-01T04:25:12.333Z,6.10
2023-02-01T04:27:43.630Z,4.78
2023-02-01T04:30:12.751Z,6.40
2023-02-01T04:32:41.327Z,5.25
2023-02-01T04:35:10.271Z,7.80
2023-02-01T04:37:38.746Z,5.80
2023-02-01T04:40:08.095Z,5.40
2023-02-01T04:42:37.611Z,6.68
2023-02-01T04:45:06.559Z,6.70
2023-02-01T04:47:34.960Z,5.07
2023-02-01T04:50:03.327Z,5.07
2023-02-01T04:52:31.708Z,4.50
2023-02-01T04:55:01.088Z,6.40
2023-02-01T04:57:29.484Z,5.05
2023-02-01T04:59:58.972Z,5.68
2023-02-01T05:02:27.109Z,3.80
2023-02-01T05:04:56.973Z,4.53
2023-02-01T05:07:25.414Z,5.13
2023-02-01T05:09:53.775Z,5.57
2023-02-01T05:12:39.818Z,3.80
2023-02-01T05:15:10.358Z,4.00
2023-02-01T05:17:41.051Z,6.80
2023-02-01T05:20:10.588Z,5.63
2023-02-01T05:22:38.986Z,4.63
2023-02-01T05:25:08.504Z,5.55
2023-02-01T05:27:37.014Z,6.93
2023-02-01T05:30:06.003Z,6.13
2023-02-01T05:32:35.753Z,4.88
2023-02-01T05:35:04.162Z,4.47
2023-02-01T05:37:32.593Z,5.50
2023-02-01T05:40:01.034Z,6.30
2023-02-01T05:42:29.438Z,4.22
2023-02-01T05:44:57.801Z,7.43
2023-02-01T05:47:26.209Z,5.13
2023-02-01T05:49:55.664Z,5.20
2023-02-01T05:52:24.049Z,4.85
2023-02-01T05:54:53.641Z,4.50
2023-02-01T05:57:22.061Z,4.25
2023-02-01T05:59:50.453Z,6.43
2023-02-01T06:02:19.071Z,5.32
2023-02-01T06:04:47.474Z,5.70
2023-02-01T06:07:17.012Z,11.23
2023-02-01T06:09:45.384Z,9.73
2023-02-01T06:12:13.799Z,9.00
2023-02-01T06:14:44.294Z,9.38
2023-02-01T06:17:12.659Z,9.23
2023-02-01T06:19:41.635Z,6.43
2023-02-01T06:22:09.989Z,9.23
2023-02-01T06:24:39.619Z,9.23
2023-02-01T06:27:07.969Z,8.27
2023-02-01T06:29:36.342Z,9.65
2023-02-01T06:32:05.126Z,6.55
2023-02-01T06:34:33.694Z,7.28
2023-02-01T06:37:02.088Z,6.60
2023-02-01T06:39:30.483Z,7.80
2023-02-01T06:41:59.941Z,12.32
2023-02-01T06:44:28.322Z,10.40
2023-02-01T06:46:56.904Z,12.52
2023-02-01T06:49:25.411Z,9.57
2023-02-01T06:51:53.763Z,7.80
2023-02-01T06:54:22.257Z,10.20
2023-02-01T06:56:50.638Z,6.65
2023-02-01T06:59:20.393Z,11.35
2023-02-01T07:01:48.820Z,8.13
2023-02-01T07:04:17.249Z,7.65
2023-02-01T07:06:45.621Z,10.25
2023-02-01T07:09:14.796Z,7.03
2023-02-01T07:11:44.329Z,7.07
2023-02-01T07:14:12.894Z,8.48
2023-02-01T07:16:42.383Z,9.68
2023-02-01T07:19:10.501Z,8.38
2023-02-01T07:21:38.869Z,8.75
2023-02-01T07:24:07.656Z,6.63
2023-02-01T07:26:36.068Z,9.65
2023-02-01T07:29:04.497Z,6.95
2023-02-01T07:31:32.860Z,6.88
2023-02-01T07:34:03.612Z,9.57
2023-02-01T07:36:32.008Z,8.05
2023-02-01T07:39:00.672Z,6.53
2023-02-01T07:41:29.019Z,5.38
2023-02-01T07:43:57.820Z,7.50
2023-02-01T07:46:26.172Z,6.82
2023-02-01T07:48:54.570Z,7.47
2023-02-01T07:51:23.999Z,4.68
2023-02-01T07:53:53.088Z,10.32
2023-02-01T07:56:23.924Z,5.63
2023-02-01T07:58:52.851Z,5.47
2023-02-01T08:01:21.808Z,6.05
2023-02-01T08:03:50.911Z,7.97
2023-02-01T08:06:20.557Z,9.75
2023-02-01T08:08:50.359Z,6.85
2023-02-01T08:11:19.257Z,7.03
2023-02-01T08:13:47.941Z,4.90
2023-02-01T08:16:17.642Z,7.30
2023-02-01T08:18:46.646Z,6.45
2023-02-01T08:21:16.015Z,7.18
2023-02-01T08:23:44.519Z,7.95
2023-02-01T08:26:16.470Z,6.75
2023-02-01T08:28:47.095Z,5.75
2023-02-01T08:31:18.276Z,6.28
2023-02-01T08:33:51.099Z,5.70
2023-02-01T08:36:19.736Z,7.05
2023-02-01T08:38:48.494Z,5.68
2023-02-01T08:41:19.536Z,5.47
2023-02-01T08:43:48.916Z,5.82
2023-02-01T08:46:17.850Z,7.03
2023-02-01T08:48:48.061Z,6.82
2023-02-01T08:51:18.987Z,6.95
2023-02-01T08:53:47.342Z,7.22
2023-02-01T08:56:18.651Z,8.18
2023-02-01T08:58:47.248Z,6.00
2023-02-01T09:01:17.909Z,6.57
2023-02-01T09:03:46.566Z,5.78
2023-02-01T09:06:16.774Z,5.60
2023-02-01T09:08:45.298Z,4.38
2023-02-01T09:11:16.489Z,8.50
2023-02-01T09:13:46.358Z,6.72
2023-02-01T09:16:14.968Z,7.03
2023-02-01T09:18:55.440Z,6.38
2023-02-01T09:21:24.792Z,5.35
2023-02-01T09:23:53.291Z,5.05
2023-02-01T09:26:26.432Z,5.60
2023-02-01T09:29:00.153Z,5.43
2023-02-01T09:31:28.511Z,4.88
2023-02-01T09:33:56.942Z,5.70
2023-02-01T09:36:25.549Z,6.03
2023-02-01T09:38:53.948Z,5.45
2023-02-01T09:41:32.451Z,5.18
2023-02-01T09:44:14.103Z,5.97
2023-02-01T09:46:42.490Z,6.40
2023-02-01T09:49:16.133Z,6.82
2023-02-01T09:51:47.727Z,7.78
2023-02-01T09:54:18.474Z,13.95
2023-02-01T09:56:50.642Z,10.77
2023-02-01T09:59:32.829Z,13.65
2023-02-01T10:02:01.442Z,9.40
2023-02-01T10:04:29.817Z,14.00
2023-02-01T10:07:18.217Z,12.82
2023-02-01T10:10:00.300Z,10.55
2023-02-01T10:12:55.453Z,12.52
2023-02-01T10:15:54.100Z,10.63
2023-02-01T10:18:37.085Z,9.30
2023-02-01T10:21:12.839Z,11.07
2023-02-01T10:24:03.556Z,11.00
2023-02-01T10:26:42.129Z,10.70
2023-02-01T10:29:20.671Z,6.90
2023-02-01T10:31:50.300Z,7.32
2023-02-01T10:34:23.180Z,10.23
2023-02-01T10:36:57.695Z,8.20
2023-02-01T10:39:26.121Z,10.30
2023-02-01T10:41:54.607Z,6.32
2023-02-01T10:44:27.150Z,8.10
2023-02-01T10:46:56.812Z,8.75
2023-02-01T10:49:31.336Z,8.68
2023-02-01T10:52:06.583Z,10.32
2023-02-01T10:54:36.960Z,7.82
2023-02-01T10:57:05.355Z,8.02
2023-02-01T10:59:37.208Z,9.50
2023-02-01T11:02:20.173Z,10.02
2023-02-01T11:04:48.519Z,8.98
2023-02-01T11:07:21.448Z,4.80
2023-02-01T11:09:55.540Z,8.27
2023-02-01T11:12:29.207Z,7.13
2023-02-01T11:15:02.902Z,7.90
2023-02-01T11:17:37.159Z,7.03
2023-02-01T11:20:11.253Z,9.90
2023-02-01T11:22:39.651Z,12.32
2023-02-01T11:25:12.033Z,10.55
2023-02-01T11:27:53.163Z,9.40
2023-02-01T11:30:36.323Z,9.30
2023-02-01T11:33:07.451Z,11.50
2023-02-01T11:35:39.278Z,10.05
2023-02-01T11:38:15.983Z,12.88
2023-02-01T11:41:33.691Z,9.93
2023-02-01T11:44:03.655Z,8.45
2023-02-01T11:49:22.207Z,8.25
2023-02-01T11:52:00.984Z,6.28
2023-02-01T11:54:52.751Z,6.78
2023-02-01T11:57:36.621Z,6.88
2023-02-01T12:00:28.824Z,8.98
2023-02-01T12:03:26.244Z,8.20
2023-02-01T12:06:06.622Z,7.03
2023-02-01T12:08:51.333Z,7.45
2023-02-01T12:11:32.205Z,9.95
2023-02-01T12:14:23.309Z,8.48
2023-02-01T12:17:07.578Z,5.78
2023-02-01T12:19:56.998Z,7.03
2023-02-01T12:22:40.406Z,8.27
2023-02-01T12:25:33.244Z,9.23
2023-02-01T12:28:28.309Z,6.15
2023-02-01T12:31:11.135Z,7.45
2023-02-01T12:33:52.640Z,6.63
2023-02-01T12:36:28.019Z,8.40
2023-02-01T12:39:09.872Z,6.93
2023-02-01T12:41:49.576Z,7.68
2023-02-01T12:44:28.103Z,7.15
2023-02-01T12:47:00.329Z,6.00
2023-02-01T12:49:37.716Z,6.22
2023-02-01T12:52:09.072Z,6.40
2023-02-01T12:54:44.106Z,6.60
2023-02-01T12:57:17.205Z,5.70
2023-02-01T12:59:49.712Z,4.90
2023-02-01T13:02:24.939Z,6.70
2023-02-01T13:05:04.171Z,5.40
2023-02-01T13:07:37.562Z,7.67
2023-02-01T13:10:15.524Z,4.90
2023-02-01T13:12:53.189Z,6.60
2023-02-01T13:15:27.003Z,7.18
2023-02-01T13:17:59.872Z,7.00
2023-02-01T13:20:33.389Z,7.57
2023-02-01T13:23:06.763Z,6.15
2023-02-01T13:25:42.107Z,10.85
2023-02-01T13:28:15.987Z,8.82
2023-02-01T13:31:00.311Z,7.85
2023-02-01T13:34:03.972Z,7.25
2023-02-01T13:36:52.035Z,10.20
2023-02-01T13:39:56.032Z,8.05
2023-02-01T13:42:28.913Z,6.70
2023-02-01T13:45:01.920Z,7.50
2023-02-01T13:47:33.223Z,5.90
2023-02-01T13:50:05.639Z,6.32
2023-02-01T13:52:40.163Z,6.55
2023-02-01T13:55:33.062Z,6.18
2023-02-01T13:58:20.749Z,5.90
2023-02-01T14:00:49.635Z,4.72
2023-02-01T14:03:23.230Z,4.22
2023-02-01T14:06:03.855Z,7.53
2023-02-01T14:08:41.814Z,7.68
2023-02-01T14:11:33.975Z,7.38
2023-02-01T14:14:43.618Z,7.53
2023-02-01T14:17:42.074Z,8.73
2023-02-01T14:20:56.846Z,6.70
2023-02-01T14:23:33.981Z,6.15
2023-02-01T14:26:18.853Z,7.68
2023-02-01T14:28:55.967Z,7.00
2023-02-01T14:31:55.653Z,7.65
2023-02-01T14:34:37.097Z,5.47
2023-02-01T14:37:08.658Z,10.93
2023-02-01T14:39:41.015Z,9.00
2023-02-01T14:42:24.523Z,5.25
2023-02-01T14:44:58.789Z,7.28
2023-02-01T14:47:38.071Z,7.78
2023-02-01T14:50:26.912Z,11.02
2023-02-01T14:53:06.589Z,9.75
2023-02-01T14:55:39.840Z,8.50
2023-02-01T14:58:17.102Z,6.00
2023-02-01T15:00:52.408Z,7.50
2023-02-01T15:03:47.074Z,7.80
2023-02-01T15:06:34.089Z,10.77
2023-02-01T15:09:06.804Z,6.65
2023-02-01T15:11:35.185Z,6.68
2023-02-01T15:14:03.577Z,8.05
2023-02-01T15:16:31.923Z,6.43
2023-02-01T15:19:16.673Z,5.72
2023-02-01T15:21:47.307Z,4.82
2023-02-01T15:24:17.028Z,6.38
2023-02-01T15:26:45.443Z,7.63
2023-02-01T15:29:14.848Z,5.85
2023-02-01T15:31:45.585Z,6.53
2023-02-01T15:34:15.611Z,7.03
2023-02-01T15:37:00.332Z,6.22
2023-02-01T15:39:32.263Z,4.28
2023-02-01T15:42:03.981Z,5.60
2023-02-01T15:44:35.686Z,5.18
2023-02-01T15:47:12.496Z,5.43
2023-02-01T15:49:45.413Z,4.40
2023-02-01T15:52:23.206Z,5.65
2023-02-01T15:54:54.332Z,3.80
2023-02-01T15:57:31.369Z,5.30
2023-02-01T16:00:00.573Z,5.13
2023-02-01T16:02:35.291Z,4.67
2023-02-01T16:05:06.082Z,5.60
2023-02-01T16:07:35.963Z,5.35
2023-02-01T16:10:25.348Z,4.82
2023-02-01T16:12:58.701Z,5.15
2023-02-01T16:15:27.124Z,4.97
2023-02-01T16:17:55.468Z,4.82
2023-02-01T16:20:24.943Z,4.30
2023-02-01T16:22:53.302Z,4.60
2023-02-01T16:25:22.094Z,6.20
2023-02-01T16:27:51.077Z,5.78
2023-02-01T16:30:23.991Z,5.82
2023-02-01T16:32:52.520Z,9.80
2023-02-01T16:35:26.435Z,10.20
2023-02-01T16:37:55.075Z,12.77
2023-02-01T16:40:23.790Z,8.77
2023-02-01T16:42:56.152Z,8.30
2023-02-01T16:45:24.940Z,5.75
2023-02-01T16:47:56.809Z,8.02
2023-02-01T16:50:28.641Z,5.63
2023-02-01T16:52:57.042Z,6.47
2023-02-01T16:55:26.308Z,4.85
2023-02-01T16:57:54.935Z,6.75
2023-02-01T17:00:25.835Z,5.22
2023-02-01T17:02:54.978Z,7.70
2023-02-01T17:05:24.142Z,4.18
2023-02-01T17:07:54.585Z,4.65
2023-02-01T17:10:33.278Z,6.00
2023-02-01T17:13:02.710Z,6.22
2023-02-01T17:15:36.823Z,6.18
2023-02-01T17:18:05.612Z,4.10
2023-02-01T17:20:34.357Z,5.43
2023-02-01T17:23:03.871Z,4.38
2023-02-01T17:25:33.097Z,5.50
2023-02-01T17:28:01.658Z,4.38
2023-02-01T17:30:31.914Z,3.65
2023-02-01T17:33:03.654Z,3.78
2023-02-01T17:35:38.666Z,5.72
2023-02-01T17:38:13.190Z,3.83
2023-02-01T17:40:41.563Z,3.97
2023-02-01T17:43:14.513Z,4.90
2023-02-01T17:45:51.483Z,6.25
2023-02-01T17:48:21.067Z,5.68
2023-02-01T17:50:52.531Z,4.40
2023-02-01T17:53:24.615Z,3.90
2023-02-01T17:55:53.675Z,4.22
2023-02-01T17:58:22.842Z,2.90
2023-02-01T18:00:51.767Z,4.10
2023-02-01T18:03:25.497Z,3.95
2023-02-01T18:05:54.678Z,3.65
2023-02-01T18:08:26.116Z,4.37
2023-02-01T18:10:55.486Z,4.40
2023-02-01T18:13:24.059Z,3.13
2023-02-01T18:15:52.422Z,3.90
2023-02-01T18:18:20.837Z,3.53
2023-02-01T18:20:50.446Z,8.20
2023-02-01T18:23:20.984Z,2.58
2023-02-01T18:25:51.486Z,4.07
2023-02-01T18:28:20.623Z,6.13
2023-02-01T18:30:51.619Z,5.53
2023-02-01T18:33:22.104Z,3.20
2023-02-01T18:35:50.840Z,4.20
2023-02-01T18:38:19.194Z,4.18
2023-02-01T18:40:52.499Z,4.18
2023-02-01T18:43:20.969Z,4.40
2023-02-01T18:45:49.757Z,4.28
2023-02-01T18:48:22.163Z,2.97
2023-02-01T18:50:57.104Z,3.38
2023-02-01T18:53:27.221Z,2.53
2023-02-01T18:58:26.498Z,2.92
2023-02-01T19:00:55.969Z,4.13
2023-02-01T19:03:26.730Z,4.63
2023-02-01T19:05:56.452Z,2.72
2023-02-01T19:08:25.853Z,3.60
2023-02-01T19:10:54.296Z,2.33
2023-02-01T19:13:28.418Z,2.13
2023-02-01T19:15:58.289Z,3.35
2023-02-01T19:18:26.693Z,2.20
2023-02-01T19:20:55.089Z,3.38
2023-02-01T19:23:24.066Z,2.10
2023-02-01T19:25:52.597Z,4.95
2023-02-01T19:28:20.972Z,2.45
2023-02-01T19:30:50.511Z,2.33
2023-02-01T19:33:19.160Z,2.35
2023-02-01T19:35:47.479Z,3.05
2023-02-01T19:38:15.910Z,3.65
2023-02-01T19:40:44.797Z,2.47
2023-02-01T19:43:13.181Z,3.67
2023-02-01T19:45:43.519Z,2.38
2023-02-01T19:48:13.412Z,3.25
2023-02-01T19:53:10.054Z,2.67
2023-02-01T19:55:38.435Z,1.92
2023-02-01T19:58:06.852Z,2.97
2023-02-01T20:00:35.813Z,4.20
2023-02-01T20:03:04.636Z,2.90
2023-02-01T20:05:34.100Z,1.67
2023-02-01T20:08:02.487Z,2.47
2023-02-01T20:10:30.849Z,2.22
2023-02-01T20:12:59.245Z,3.67
2023-02-01T20:15:28.387Z,3.30
2023-02-01T20:17:56.749Z,3.43
2023-02-01T20:20:25.242Z,2.90
2023-02-01T20:22:57.667Z,2.58
2023-02-01T20:25:26.049Z,3.33
2023-02-01T20:27:55.437Z,2.15
2023-02-01T20:30:24.303Z,2.75
2023-02-01T20:32:52.847Z,1.77
2023-02-01T20:35:22.083Z,2.85
2023-02-01T20:37:51.769Z,3.42
2023-02-01T20:40:21.444Z,2.35
2023-02-01T20:42:49.827Z,2.60
2023-02-01T20:45:18.398Z,2.00
2023-02-01T20:47:50.530Z,2.08
2023-02-01T20:50:19.124Z,1.85
2023-02-01T20:52:47.463Z,1.90
2023-02-01T20:55:15.862Z,2.13
2023-02-01T20:57:45.315Z,2.30
2023-02-01T21:00:15.610Z,2.15
2023-02-01T21:02:43.970Z,2.13
2023-02-01T21:05:12.359Z,2.42
2023-02-01T21:07:40.765Z,1.55
2023-02-01T21:10:10.149Z,2.33
2023-02-01T21:12:38.839Z,2.65
2023-02-01T21:15:09.513Z,2.65
2023-02-01T21:17:39.365Z,2.45
2023-02-01T21:20:09.680Z,2.63
2023-02-01T21:22:38.029Z,1.92
2023-02-01T21:25:07.571Z,2.88
2023-02-01T21:27:35.911Z,2.63
2023-02-01T21:30:05.880Z,1.00
2023-02-01T21:32:36.119Z,2.83
2023-02-01T21:35:04.891Z,1.10
2023-02-01T21:37:33.315Z,3.58
2023-02-01T21:40:01.684Z,1.90
2023-02-01T21:42:30.961Z,2.35
2023-02-01T21:44:59.607Z,1.77
2023-02-01T21:47:27.972Z,2.38
2023-02-01T21:49:57.427Z,2.80
2023-02-01T21:52:26.207Z,2.72
2023-02-01T21:54:59.472Z,2.65
2023-02-01T21:57:28.337Z,1.52
2023-02-01T21:59:58.817Z,2.55
2023-02-01T22:02:27.461Z,2.78
2023-02-01T22:04:57.673Z,2.60
2023-02-01T22:07:27.134Z,2.38
2023-02-01T22:09:55.577Z,1.25
2023-02-01T22:12:24.054Z,2.38
2023-02-01T22:14:52.465Z,4.03
2023-02-01T22:17:20.797Z,2.97
2023-02-01T22:19:49.147Z,2.35
2023-02-01T22:22:17.507Z,2.55
2023-02-01T22:24:46.953Z,2.47
2023-02-01T22:27:15.292Z,3.55
2023-02-01T22:29:44.161Z,2.78
2023-02-01T22:32:13.894Z,2.42
2023-02-01T22:34:42.394Z,3.67
2023-02-01T22:37:12.046Z,2.83
2023-02-01T22:39:40.663Z,1.70
2023-02-01T22:42:10.160Z,3.25
2023-02-01T22:44:40.178Z,2.53
2023-02-01T22:47:09.753Z,2.67
2023-02-01T22:49:38.104Z,2.03
2023-02-01T22:52:06.478Z,3.58
2023-02-01T22:54:34.813Z,2.22
2023-02-01T22:57:03.555Z,2.58
2023-02-01T22:59:33.016Z,2.47
2023-02-01T23:02:01.443Z,2.95
2023-02-01T23:04:29.796Z,2.50
2023-02-01T23:06:58.161Z,3.30
2023-02-01T23:09:27.346Z,3.47
2023-02-01T23:11:56.278Z,3.07
2023-02-01T23:14:24.671Z,2.10
2023-02-01T23:16:54.111Z,3.90
2023-02-01T23:19:22.491Z,4.97
2023-02-01T23:21:50.878Z,2.20
2023-02-01T23:24:19.228Z,2.20
2023-02-01T23:26:47.638Z,1.83
2023-02-01T23:29:19.600Z,3.70
2023-02-01T23:31:48.088Z,2.75
2023-02-01T23:34:17.586Z,2.40
2023-02-01T23:36:45.987Z,2.42
2023-02-01T23:39:14.332Z,3.63
2023-02-01T23:41:42.760Z,1.75
2023-02-01T23:44:11.270Z,1.88
2023-02-01T23:46:41.314Z,2.38
2023-02-01T23:51:39.511Z,1.77
2023-02-01T23:54:08.263Z,2.05
2023-02-01T23:56:38.313Z,3.72
